createdAt,value
2023-02-27T00:00:15.199Z,-3.32
2023-02-27T00:02:43.407Z,-3.31
2023-02-27T00:05:10.742Z,-3.31
2023-02-27T00:07:38.182Z,-3.32
2023-02-27T00:10:06.004Z,-3.29
2023-02-27T00:12:38.019Z,-3.33
2023-02-27T00:15:06.159Z,-3.39
2023-02-27T00:17:33.585Z,-3.40
2023-02-27T00:20:00.580Z,-3.39
2023-02-27T00:22:27.547Z,-3.47
2023-02-27T00:24:54.755Z,-3.39
2023-02-27T00:27:21.869Z,-3.43
2023-02-27T00:29:49.048Z,-3.45
2023-02-27T00:32:16.432Z,-3.45
2023-02-27T00:34:43.919Z,-3.41
2023-02-27T00:37:10.908Z,-3.38
2023-02-27T00:39:37.936Z,-3.33
2023-02-27T00:42:04.915Z,-3.35
2023-02-27T00:44:32.037Z,-3.31
2023-02-27T00:46:59.007Z,-3.40
2023-02-27T00:49:26.364Z,-3.39
2023-02-27T00:51:53.756Z,-3.40
2023-02-27T00:54:20.865Z,-3.45
2023-02-27T00:56:47.997Z,-3.45
2023-02-27T00:59:14.896Z,-3.46
2023-02-27T01:01:42.076Z,-3.43
2023-02-27T01:04:09.140Z,-3.44
2023-02-27T01:06:36.078Z,-3.47
2023-02-27T01:09:04.308Z,-3.56
2023-02-27T01:11:31.269Z,-3.53
2023-02-27T01:14:00.243Z,-3.51
2023-02-27T01:16:27.412Z,-3.57
2023-02-27T01:18:54.434Z,-3.51
2023-02-27T01:21:22.826Z,-3.55
2023-02-27T01:23:49.783Z,-3.56
2023-02-27T01:26:19.311Z,-3.60
2023-02-27T01:28:46.599Z,-3.57
2023-02-27T01:31:13.853Z,-3.55
2023-02-27T01:33:40.867Z,-3.52
2023-02-27T01:36:08.179Z,-3.52
2023-02-27T01:38:35.583Z,-3.57
2023-02-27T01:41:02.903Z,-3.58
2023-02-27T01:43:33.017Z,-3.55
2023-02-27T01:46:01.201Z,-3.54
2023-02-27T01:48:33.855Z,-3.55
2023-02-27T01:51:00.979Z,-3.67
2023-02-27T01:53:29.231Z,-3.63
2023-02-27T01:56:00.127Z,-3.65
2023-02-27T01:58:27.336Z,-3.65
2023-02-27T02:00:55.349Z,-3.64
2023-02-27T02:03:22.252Z,-3.62
2023-02-27T02:05:52.376Z,-3.63
2023-02-27T02:08:21.384Z,-3.66
2023-02-27T02:10:50.356Z,-3.69
2023-02-27T02:13:18.306Z,-3.68
2023-02-27T02:16:05.806Z,-3.68
2023-02-27T02:18:51.590Z,-3.64
2023-02-27T02:21:24.956Z,-3.63
2023-02-27T02:23:56.944Z,-3.65
2023-02-27T02:26:37.854Z,-3.64
2023-02-27T02:29:04.733Z,-3.64
2023-02-27T02:31:42.149Z,-3.63
2023-02-27T02:34:27.914Z,-3.66
2023-02-27T02:37:17.590Z,-3.79
2023-02-27T02:39:48.590Z,-3.81
2023-02-27T02:42:19.086Z,-3.80
2023-02-27T02:44:52.279Z,-3.91
2023-02-27T02:47:19.402Z,-3.84
2023-02-27T02:50:06.565Z,-3.87
2023-02-27T02:52:39.700Z,-3.84
2023-02-27T02:55:17.313Z,-3.86
2023-02-27T02:58:03.841Z,-3.81
2023-02-27T03:00:38.183Z,-3.82
2023-02-27T03:03:15.037Z,-3.84
2023-02-27T03:05:46.811Z,-3.83
2023-02-27T03:08:26.906Z,-3.86
2023-02-27T03:11:03.656Z,-3.88
2023-02-27T03:13:33.531Z,-3.87
2023-02-27T03:16:15.962Z,-3.86
2023-02-27T03:19:06.236Z,-3.80
2023-02-27T03:21:42.416Z,-3.79
2023-02-27T03:24:12.884Z,-3.80
2023-02-27T03:26:42.628Z,-3.86
2023-02-27T03:29:13.356Z,-3.93
2023-02-27T03:31:40.394Z,-3.88
2023-02-27T03:34:12.779Z,-3.87
2023-02-27T03:36:44.868Z,-3.86
2023-02-27T03:39:27.855Z,-3.89
2023-02-27T03:41:54.813Z,-3.97
2023-02-27T03:45:00.389Z,-3.91
2023-02-27T03:47:28.264Z,-3.91
2023-02-27T03:49:56.101Z,-3.94
2023-02-27T03:52:23.992Z,-3.96
2023-02-27T03:54:57.168Z,-3.92
2023-02-27T03:57:24.498Z,-3.92
2023-02-27T03:59:51.606Z,-3.90
2023-02-27T04:02:18.793Z,-3.90
2023-02-27T04:04:45.926Z,-3.88
2023-02-27T04:07:40.699Z,-3.92
2023-02-27T04:10:26.565Z,-3.95
2023-02-27T04:12:53.536Z,-3.94
2023-02-27T04:15:29.258Z,-3.94
2023-02-27T04:18:05.636Z,-3.95
2023-02-27T04:20:48.575Z,-4.00
2023-02-27T04:23:15.892Z,-4.01
2023-02-27T04:25:49.112Z,-4.11
2023-02-27T04:28:17.703Z,-4.12
2023-02-27T04:30:49.349Z,-4.07
2023-02-27T04:33:23.779Z,-4.09
2023-02-27T04:35:53.418Z,-4.06
2023-02-27T04:38:23.243Z,-4.02
2023-02-27T04:40:56.818Z,-3.98
2023-02-27T04:43:27.592Z,-3.93
2023-02-27T04:45:57.002Z,-4.03
2023-02-27T04:48:30.472Z,-4.03
2023-02-27T04:51:15.681Z,-4.08
2023-02-27T04:53:48.736Z,-4.19
2023-02-27T04:56:23.280Z,-4.16
2023-02-27T04:58:52.944Z,-4.11
2023-02-27T05:01:36.069Z,-4.08
2023-02-27T05:04:05.496Z,-4.08
2023-02-27T05:06:35.449Z,-3.97
2023-02-27T05:09:10.167Z,-3.93
2023-02-27T05:11:45.313Z,-3.97
2023-02-27T05:14:20.922Z,-3.96
2023-02-27T05:16:54.362Z,-3.91
2023-02-27T05:19:21.774Z,-3.93
2023-02-27T05:21:48.654Z,-4.04
2023-02-27T05:24:18.609Z,-4.02
2023-02-27T05:26:48.756Z,-4.06
2023-02-27T05:29:35.925Z,-4.08
2023-02-27T05:32:13.187Z,-4.03
2023-02-27T05:34:44.883Z,-4.08
2023-02-27T05:37:15.126Z,-4.13
2023-02-27T05:39:43.670Z,-4.03
2023-02-27T05:42:14.186Z,-4.15
2023-02-27T05:44:44.656Z,-4.06
2023-02-27T05:47:13.985Z,-4.02
2023-02-27T05:49:43.574Z,-4.06
2023-02-27T05:52:12.441Z,-4.01
2023-02-27T05:54:44.913Z,-4.00
2023-02-27T05:57:15.815Z,-3.95
2023-02-27T06:00:03.363Z,-4.03
2023-02-27T06:02:39.225Z,-3.93
2023-02-27T06:05:07.997Z,-3.92
2023-02-27T06:07:35.333Z,-3.95
2023-02-27T06:10:02.687Z,-4.04
2023-02-27T06:12:30.842Z,-3.97
2023-02-27T06:14:57.972Z,-3.91
2023-02-27T06:17:24.968Z,-3.86
2023-02-27T06:19:52.288Z,-3.88
2023-02-27T06:22:19.299Z,-3.87
2023-02-27T06:24:46.380Z,-3.90
2023-02-27T06:27:13.405Z,-3.86
2023-02-27T06:29:40.614Z,-3.85
2023-02-27T06:32:07.708Z,-3.83
2023-02-27T06:34:34.757Z,-3.86
2023-02-27T06:37:04.154Z,-3.89
2023-02-27T06:39:31.598Z,-3.90
2023-02-27T06:42:00.094Z,-3.82
2023-02-27T06:44:27.046Z,-3.80
2023-02-27T06:46:54.040Z,-3.69
2023-02-27T06:49:21.313Z,-3.73
2023-02-27T06:51:48.411Z,-3.69
2023-02-27T06:54:15.717Z,-3.74
2023-02-27T06:56:42.683Z,-3.78
2023-02-27T06:59:09.695Z,-3.76
2023-02-27T07:01:37.236Z,-3.77
2023-02-27T07:04:04.348Z,-3.80
2023-02-27T07:07:33.394Z,-3.66
2023-02-27T07:09:18.311Z,-3.59
2023-02-27T07:11:45.623Z,-3.59
2023-02-27T07:14:12.804Z,-3.52
2023-02-27T07:16:41.087Z,-3.48
2023-02-27T07:19:08.819Z,-3.50
2023-02-27T07:21:35.822Z,-3.36
2023-02-27T07:24:05.061Z,-3.40
2023-02-27T07:26:32.230Z,-3.25
2023-02-27T07:29:00.529Z,-3.19
2023-02-27T07:31:28.969Z,-3.39
2023-02-27T07:33:56.174Z,-3.38
2023-02-27T07:36:23.582Z,-3.33
2023-02-27T07:38:50.617Z,-3.27
2023-02-27T07:41:29.910Z,-3.43
2023-02-27T07:43:59.945Z,-3.33
2023-02-27T07:46:28.085Z,-3.31
2023-02-27T07:48:55.613Z,-3.29
2023-02-27T07:51:22.679Z,-3.28
2023-02-27T07:53:49.620Z,-3.45
2023-02-27T07:56:16.637Z,-3.28
2023-02-27T07:58:43.765Z,-3.42
2023-02-27T08:01:10.734Z,-3.42
2023-02-27T08:03:37.813Z,-3.49
2023-02-27T08:06:04.877Z,-3.45
2023-02-27T08:08:31.982Z,-3.31
2023-02-27T08:10:59.021Z,-3.25
2023-02-27T08:13:55.651Z,-3.30
2023-02-27T08:16:13.605Z,-3.27
2023-02-27T08:18:40.646Z,-3.19
2023-02-27T08:21:07.796Z,-3.19
2023-02-27T08:23:34.728Z,-3.25
2023-02-27T08:26:02.491Z,-3.25
2023-02-27T08:28:29.802Z,-3.19
2023-02-27T08:30:58.217Z,-3.19
2023-02-27T08:33:25.368Z,-3.14
2023-02-27T08:35:54.620Z,-3.18
2023-02-27T08:38:21.908Z,-3.22
2023-02-27T08:40:50.281Z,-3.14
2023-02-27T08:43:17.337Z,-3.10
2023-02-27T08:45:44.453Z,-2.98
2023-02-27T08:48:14.296Z,-2.94
2023-02-27T08:50:42.321Z,-3.03
2023-02-27T08:53:12.515Z,-2.89
2023-02-27T08:55:39.438Z,-2.85
2023-02-27T08:58:06.547Z,-2.76
2023-02-27T09:00:33.519Z,-2.67
2023-02-27T09:03:01.545Z,-2.70
2023-02-27T09:05:28.841Z,-2.76
2023-02-27T09:07:56.069Z,-2.77
2023-02-27T09:10:23.321Z,-2.75
2023-02-27T09:12:50.349Z,-2.84
2023-02-27T09:15:17.370Z,-2.78
2023-02-27T09:17:44.349Z,-2.81
2023-02-27T09:20:12.313Z,-2.79
2023-02-27T09:22:39.802Z,-2.83
2023-02-27T09:25:07.034Z,-2.90
2023-02-27T09:27:35.017Z,-2.77
2023-02-27T09:30:02.140Z,-2.80
2023-02-27T09:32:30.626Z,-2.78
2023-02-27T09:34:58.711Z,-2.75
2023-02-27T09:37:26.189Z,-2.84
2023-02-27T09:39:53.402Z,-2.91
2023-02-27T09:42:29.118Z,-2.99
2023-02-27T09:44:57.908Z,-2.99
2023-02-27T09:47:31.160Z,-3.00
2023-02-27T09:50:00.577Z,-3.13
2023-02-27T09:52:28.571Z,-3.08
2023-02-27T09:54:55.761Z,-3.05
2023-02-27T09:57:41.353Z,-3.01
2023-02-27T10:00:15.837Z,-3.00
2023-02-27T10:02:59.099Z,-3.05
2023-02-27T10:05:49.471Z,-2.90
2023-02-27T10:08:19.404Z,-2.91
2023-02-27T10:11:01.217Z,-2.83
2023-02-27T10:13:37.293Z,-2.74
2023-02-27T10:16:05.367Z,-2.75
2023-02-27T10:18:35.949Z,-2.71
2023-02-27T10:21:06.228Z,-2.74
2023-02-27T10:23:39.619Z,-2.77
2023-02-27T10:26:08.154Z,-2.92
2023-02-27T10:28:35.421Z,-3.00
2023-02-27T10:31:02.750Z,-3.00
2023-02-27T10:33:33.260Z,-2.98
2023-02-27T10:36:02.155Z,-3.01
2023-02-27T10:38:30.372Z,-3.06
2023-02-27T10:40:58.311Z,-3.17
2023-02-27T10:43:25.622Z,-3.11
2023-02-27T10:45:53.593Z,-3.16
2023-02-27T10:48:21.025Z,-3.07
2023-02-27T10:50:52.468Z,-3.08
2023-02-27T10:53:19.834Z,-2.96
2023-02-27T10:55:56.260Z,-3.00
2023-02-27T10:58:23.452Z,-2.92
2023-02-27T11:00:58.192Z,-2.92
2023-02-27T11:03:30.059Z,-2.82
2023-02-27T11:06:02.912Z,-2.84
2023-02-27T11:08:32.275Z,-2.89
2023-02-27T11:11:01.286Z,-2.90
2023-02-27T11:13:30.791Z,-2.76
2023-02-27T11:16:12.932Z,-2.77
2023-02-27T11:18:41.388Z,-2.85
2023-02-27T11:21:20.637Z,-3.02
2023-02-27T11:23:55.949Z,-2.74
2023-02-27T11:29:20.727Z,-2.20
2023-02-27T11:32:01.561Z,-2.16
2023-02-27T11:34:39.580Z,-2.22
2023-02-27T11:37:08.885Z,-2.23
2023-02-27T11:39:39.470Z,-2.31
2023-02-27T11:42:17.353Z,-2.40
2023-02-27T11:44:56.240Z,-2.54
2023-02-27T11:47:27.494Z,-2.63
2023-02-27T11:50:16.020Z,-2.69
2023-02-27T11:52:54.771Z,-2.80
2023-02-27T11:55:27.999Z,-2.83
2023-02-27T11:57:59.869Z,-2.96
2023-02-27T12:00:47.538Z,-3.03
2023-02-27T12:03:32.345Z,-2.95
2023-02-27T12:06:13.171Z,-2.92
2023-02-27T12:08:46.864Z,-2.88
2023-02-27T12:11:21.497Z,-2.93
2023-02-27T12:13:57.408Z,-3.00
2023-02-27T12:16:28.109Z,-3.05
2023-02-27T12:22:06.806Z,-3.27
2023-02-27T12:25:07.602Z,-3.22
2023-02-27T12:27:37.961Z,-3.25
2023-02-27T12:30:13.991Z,-3.26
2023-02-27T12:32:44.113Z,-3.19
2023-02-27T12:35:17.755Z,-3.36
2023-02-27T12:37:44.894Z,-3.32
2023-02-27T12:40:14.910Z,-3.29
2023-02-27T12:42:52.600Z,-3.26
2023-02-27T12:45:22.728Z,-3.25
2023-02-27T12:48:05.465Z,-3.34
2023-02-27T12:50:44.868Z,-3.27
2023-02-27T12:53:30.681Z,-3.48
2023-02-27T12:58:49.504Z,-3.54
2023-02-27T13:01:16.672Z,-3.53
2023-02-27T13:03:46.995Z,-3.42
2023-02-27T13:06:37.423Z,-3.41
2023-02-27T13:09:04.490Z,-3.33
2023-02-27T13:11:38.088Z,-3.27
2023-02-27T13:14:17.115Z,-3.22
2023-02-27T13:16:47.161Z,-3.25
2023-02-27T13:19:35.589Z,-3.33
2023-02-27T13:22:22.231Z,-3.32
2023-02-27T13:24:55.585Z,-3.37
2023-02-27T13:27:29.253Z,-3.35
2023-02-27T13:30:14.934Z,-3.31
2023-02-27T13:32:44.405Z,-3.37
2023-02-27T13:35:12.642Z,-3.33
2023-02-27T13:38:03.818Z,-3.34
2023-02-27T13:40:39.712Z,-3.56
2023-02-27T13:43:28.554Z,-3.50
2023-02-27T13:45:57.510Z,-3.60
2023-02-27T13:48:33.762Z,-3.50
2023-02-27T13:53:42.926Z,-3.57
2023-02-27T13:56:23.846Z,-3.56
2023-02-27T13:58:51.859Z,-3.64
2023-02-27T14:01:22.913Z,-3.54
2023-02-27T14:04:04.911Z,-3.64
2023-02-27T14:06:32.681Z,-3.77
2023-02-27T14:09:14.491Z,-3.68
2023-02-27T14:12:01.571Z,-3.74
2023-02-27T14:25:56.322Z,-3.77
2023-02-27T14:28:27.502Z,-3.83
2023-02-27T14:30:59.340Z,-3.89
2023-02-27T14:33:40.411Z,-4.00
2023-02-27T14:36:22.213Z,-4.03
2023-02-27T14:38:50.987Z,-3.92
2023-02-27T14:41:37.418Z,-3.98
2023-02-27T14:44:05.103Z,-4.01
2023-02-27T14:46:35.504Z,-3.94
2023-02-27T14:49:19.250Z,-3.90
2023-02-27T14:51:48.933Z,-4.00
2023-02-27T14:54:18.568Z,-4.16
2023-02-27T14:56:56.079Z,-4.15
2023-02-27T14:59:35.868Z,-4.15
2023-02-27T15:02:04.754Z,-4.11
2023-02-27T15:04:33.532Z,-4.05
2023-02-27T15:07:02.390Z,-4.08
2023-02-27T15:09:32.812Z,-4.07
2023-02-27T15:12:04.601Z,-4.00
2023-02-27T15:14:37.214Z,-3.94
2023-02-27T15:17:06.479Z,-4.01
2023-02-27T15:22:19.634Z,-4.01
2023-02-27T15:24:54.650Z,-4.06
2023-02-27T15:27:24.323Z,-4.02
2023-02-27T15:29:55.501Z,-3.91
2023-02-27T15:32:32.009Z,-4.07
2023-02-27T15:35:01.440Z,-3.99
2023-02-27T15:37:33.073Z,-4.03
2023-02-27T15:40:01.856Z,-3.99
2023-02-27T15:42:31.055Z,-4.01
2023-02-27T15:44:58.787Z,-4.08
2023-02-27T15:47:27.075Z,-4.03
2023-02-27T15:49:56.633Z,-4.04
2023-02-27T15:52:25.516Z,-4.01
2023-02-27T15:54:52.842Z,-4.06
2023-02-27T15:57:23.816Z,-4.16
2023-02-27T15:59:55.506Z,-4.29
2023-02-27T16:02:24.743Z,-4.27
2023-02-27T16:04:52.354Z,-4.21
2023-02-27T16:07:21.855Z,-4.08
2023-02-27T16:10:01.076Z,-4.02
2023-02-27T16:12:37.169Z,-4.03
2023-02-27T16:15:20.856Z,-4.05
2023-02-27T16:17:54.205Z,-4.06
2023-02-27T16:20:29.487Z,-4.05
2023-02-27T16:23:07.502Z,-4.01
2023-02-27T16:25:34.680Z,-3.98
2023-02-27T16:28:02.065Z,-4.13
2023-02-27T16:30:29.253Z,-4.16
2023-02-27T16:33:02.181Z,-4.21
2023-02-27T16:35:29.713Z,-4.15
2023-02-27T16:38:11.882Z,-4.07
2023-02-27T16:40:39.357Z,-4.04
2023-02-27T16:43:06.486Z,-4.05
2023-02-27T16:45:36.170Z,-4.04
2023-02-27T16:48:05.526Z,-4.01
2023-02-27T16:50:34.241Z,-3.98
2023-02-27T16:53:01.525Z,-3.96
2023-02-27T16:55:29.461Z,-4.03
2023-02-27T16:57:57.183Z,-4.06
2023-02-27T17:00:24.327Z,-4.17
2023-02-27T17:02:51.510Z,-4.02
2023-02-27T17:05:18.986Z,-4.13
2023-02-27T17:07:57.672Z,-4.25
2023-02-27T17:10:25.873Z,-4.23
2023-02-27T17:12:53.945Z,-4.29
2023-02-27T17:15:21.460Z,-4.21
2023-02-27T17:17:49.018Z,-4.24
2023-02-27T17:20:26.408Z,-4.28
2023-02-27T17:22:53.770Z,-4.18
2023-02-27T17:25:21.410Z,-4.13
2023-02-27T17:27:53.408Z,-4.12
2023-02-27T17:30:20.608Z,-4.13
2023-02-27T17:32:47.655Z,-4.21
2023-02-27T17:35:15.086Z,-4.16
2023-02-27T17:37:42.345Z,-4.17
2023-02-27T17:40:09.909Z,-4.07
2023-02-27T17:42:37.319Z,-4.08
2023-02-27T17:45:11.724Z,-4.04
2023-02-27T17:47:44.436Z,-4.08
2023-02-27T17:50:14.719Z,-4.10
2023-02-27T17:52:42.148Z,-4.05
2023-02-27T17:55:09.936Z,-4.08
2023-02-27T17:57:40.382Z,-4.09
2023-02-27T18:00:14.807Z,-4.25
2023-02-27T18:02:44.229Z,-4.19
2023-02-27T18:05:16.928Z,-4.30
2023-02-27T18:07:45.016Z,-4.38
2023-02-27T18:10:17.863Z,-4.46
2023-02-27T18:12:47.594Z,-4.53
2023-02-27T18:15:15.659Z,-4.52
2023-02-27T18:17:43.810Z,-4.56
2023-02-27T18:20:14.721Z,-4.54
2023-02-27T18:22:44.809Z,-4.59
2023-02-27T18:25:12.082Z,-4.59
2023-02-27T18:27:39.986Z,-4.63
2023-02-27T18:30:07.419Z,-4.70
2023-02-27T18:32:34.927Z,-4.68
2023-02-27T18:35:03.125Z,-4.80
2023-02-27T18:37:30.591Z,-4.78
2023-02-27T18:39:57.786Z,-4.71
2023-02-27T18:42:24.886Z,-4.72
2023-02-27T18:44:52.007Z,-4.80
2023-02-27T18:47:20.598Z,-4.73
2023-02-27T18:49:47.830Z,-4.71
2023-02-27T18:52:15.037Z,-4.74
2023-02-27T18:54:43.614Z,-4.78
2023-02-27T18:57:10.975Z,-4.79
2023-02-27T18:59:38.340Z,-4.80
2023-02-27T19:02:05.413Z,-4.81
2023-02-27T19:04:58.523Z,-4.86
2023-02-27T19:07:56.123Z,-4.88
2023-02-27T19:10:35.257Z,-4.91
2023-02-27T19:13:02.476Z,-4.88
2023-02-27T19:15:29.618Z,-4.89
2023-02-27T19:17:57.348Z,-4.93
2023-02-27T19:20:24.730Z,-4.97
2023-02-27T19:22:53.747Z,-4.94
2023-02-27T19:25:22.391Z,-4.98
2023-02-27T19:27:58.829Z,-5.04
2023-02-27T19:30:28.384Z,-5.09
2023-02-27T19:32:56.050Z,-5.07
2023-02-27T19:35:24.772Z,-5.10
2023-02-27T19:37:57.480Z,-5.11
2023-02-27T19:40:26.096Z,-5.11
2023-02-27T19:42:53.178Z,-5.17
2023-02-27T19:45:20.797Z,-5.20
2023-02-27T19:47:47.893Z,-5.15
2023-02-27T19:50:15.180Z,-5.29
2023-02-27T19:52:42.614Z,-5.29
2023-02-27T19:55:09.724Z,-5.31
2023-02-27T19:57:37.285Z,-5.37
2023-02-27T20:00:06.762Z,-5.35
2023-02-27T20:02:40.586Z,-5.43
2023-02-27T20:05:12.254Z,-5.44
2023-02-27T20:07:42.089Z,-5.44
2023-02-27T20:10:09.907Z,-5.52
2023-02-27T20:12:37.036Z,-5.48
2023-02-27T20:15:09.021Z,-5.45
2023-02-27T20:17:36.106Z,-5.46
2023-02-27T20:20:05.996Z,-5.46
2023-02-27T20:22:33.082Z,-5.45
2023-02-27T20:25:00.625Z,-5.42
2023-02-27T20:27:28.827Z,-5.43
2023-02-27T20:29:56.858Z,-5.46
2023-02-27T20:32:24.838Z,-5.52
2023-02-27T20:35:12.544Z,-5.57
2023-02-27T20:37:40.199Z,-5.53
2023-02-27T20:40:08.764Z,-5.57
2023-02-27T20:42:36.781Z,-5.64
2023-02-27T20:45:04.270Z,-5.66
2023-02-27T20:47:31.500Z,-5.71
2023-02-27T20:50:00.499Z,-5.64
2023-02-27T20:52:27.632Z,-5.63
2023-02-27T20:54:55.819Z,-5.62
2023-02-27T20:57:23.047Z,-5.70
2023-02-27T20:59:50.624Z,-5.68
2023-02-27T21:02:17.813Z,-5.66
2023-02-27T21:04:47.621Z,-5.64
2023-02-27T21:07:17.810Z,-5.64
2023-02-27T21:09:45.330Z,-5.62
2023-02-27T21:12:12.944Z,-5.64
2023-02-27T21:14:41.937Z,-5.76
2023-02-27T21:17:11.010Z,-5.81
2023-02-27T21:19:40.114Z,-5.83
2023-02-27T21:22:11.239Z,-5.88
2023-02-27T21:24:38.661Z,-5.86
2023-02-27T21:27:05.987Z,-5.84
2023-02-27T21:29:33.756Z,-5.97
2023-02-27T21:32:01.727Z,-5.95
2023-02-27T21:34:29.171Z,-6.04
2023-02-27T21:36:56.512Z,-6.02
2023-02-27T21:39:25.639Z,-6.03
2023-02-27T21:41:52.901Z,-6.00
2023-02-27T21:44:21.538Z,-6.03
2023-02-27T21:46:48.653Z,-5.99
2023-02-27T21:49:20.524Z,-5.98
2023-02-27T21:51:47.829Z,-6.03
2023-02-27T21:54:15.559Z,-6.05
2023-02-27T21:56:43.452Z,-6.10
2023-02-27T21:59:10.549Z,-6.23
2023-02-27T22:01:38.031Z,-6.27
2023-02-27T22:04:05.860Z,-6.20
2023-02-27T22:06:33.980Z,-6.16
2023-02-27T22:09:03.170Z,-6.09
2023-02-27T22:11:31.062Z,-6.11
2023-02-27T22:13:58.321Z,-6.12
2023-02-27T22:16:25.336Z,-6.16
2023-02-27T22:18:52.421Z,-6.22
2023-02-27T22:21:21.267Z,-6.26
2023-02-27T22:23:48.489Z,-6.27
2023-02-27T22:26:17.174Z,-6.26
2023-02-27T22:28:44.440Z,-6.34
2023-02-27T22:31:18.899Z,-6.35
2023-02-27T22:33:48.695Z,-6.35
2023-02-27T22:36:17.300Z,-6.40
2023-02-27T22:38:44.475Z,-6.43
2023-02-27T22:41:15.981Z,-6.45
2023-02-27T22:43:45.082Z,-6.48
2023-02-27T22:46:16.425Z,-6.50
2023-02-27T22:48:43.492Z,-6.58
2023-02-27T22:51:12.910Z,-6.52
2023-02-27T22:53:40.550Z,-6.57
2023-02-27T22:56:11.671Z,-6.62
2023-02-27T22:58:39.456Z,-6.68
2023-02-27T23:01:09.609Z,-6.62
2023-02-27T23:03:37.566Z,-6.76
2023-02-27T23:06:05.683Z,-6.77
2023-02-27T23:08:32.708Z,-6.72
2023-02-27T23:10:59.932Z,-6.73
2023-02-27T23:13:27.350Z,-6.73
2023-02-27T23:15:54.977Z,-6.84
2023-02-27T23:18:22.016Z,-6.76
2023-02-27T23:20:48.985Z,-6.73
2023-02-27T23:23:16.376Z,-6.72
2023-02-27T23:25:43.675Z,-6.73
2023-02-27T23:28:11.122Z,-6.78
2023-02-27T23:30:38.248Z,-6.81
2023-02-27T23:33:05.271Z,-6.85
2023-02-27T23:35:32.364Z,-6.93
2023-02-27T23:38:00.754Z,-6.96
2023-02-27T23:40:27.779Z,-6.97
2023-02-27T23:42:54.821Z,-7.02
2023-02-27T23:45:25.000Z,-7.05
2023-02-27T23:47:56.808Z,-7.05
2023-02-27T23:50:28.733Z,-7.10
2023-02-27T23:52:56.723Z,-7.14
2023-02-27T23:55:24.031Z,-7.17
2023-02-27T23:57:54.694Z,-7.18
